Time;durP1;ratioP1;P1;durP2;ratioP2;P2;SDS_P1;SDS_P2;PMS_P1;PMS_P2;Temp;Humidity;BMP_temperature;BMP_pressure;BME280_temperature;BME280_humidity;BME280_pressure;Samples;Min_cycle;Max_cycle;Signal;HPM_P1;HPM_P2
2023/03/14 00:00:34;;;;;;;20.88;3.05;;;9.90;99.90;;;;;;5052602;28;20440;-50
2023/03/14 00:03:00;;;;;;;23.30;2.60;;;10.00;99.90;;;;;;5048582;28;20389;-45
2023/03/14 00:05:25;;;;;;;20.15;2.70;;;9.90;99.90;;;;;;5049799;28;20052;-52
2023/03/14 00:07:51;;;;;;;15.23;2.67;;;10.00;99.90;;;;;;5053015;28;20075;-44
2023/03/14 00:10:17;;;;;;;23.08;3.33;;;9.90;99.90;;;;;;5049355;28;20031;-52
2023/03/14 00:12:43;;;;;;;27.13;3.97;;;10.00;99.90;;;;;;5051244;28;20039;-40
2023/03/14 00:15:10;;;;;;;19.13;2.50;;;10.00;99.90;;;;;;5049590;28;20077;-40
2023/03/14 00:17:37;;;;;;;32.72;4.03;;;10.00;99.90;;;;;;5046537;28;20477;-41
2023/03/14 00:20:08;;;;;;;19.90;3.17;;;10.00;99.90;;;;;;5052701;28;20033;-42
2023/03/14 00:22:40;;;;;;;23.10;2.65;;;10.00;99.90;;;;;;5047868;28;20049;-43
2023/03/14 00:25:08;;;;;;;26.55;4.03;;;10.00;99.90;;;;;;5052036;28;20032;-41
2023/03/14 00:27:34;;;;;;;21.58;2.90;;;10.00;99.90;;;;;;5028262;28;20412;-44
2023/03/14 00:30:00;;;;;;;21.70;3.00;;;9.90;99.90;;;;;;5052147;28;20041;-47
2023/03/14 00:32:25;;;;;;;16.20;2.30;;;9.90;99.90;;;;;;5051738;28;20086;-44
2023/03/14 00:34:51;;;;;;;21.13;3.35;;;9.90;99.90;;;;;;5048707;28;20112;-47
2023/03/14 00:37:17;;;;;;;20.23;2.83;;;9.90;99.90;;;;;;5052259;28;20029;-41
2023/03/14 00:39:43;;;;;;;21.45;3.10;;;9.90;99.90;;;;;;5049016;28;20457;-41
2023/03/14 00:42:08;;;;;;;14.55;1.70;;;9.90;99.90;;;;;;5051430;28;20025;-41
2023/03/14 00:44:34;;;;;;;14.18;2.08;;;9.90;99.90;;;;;;5049734;28;20032;-43
2023/03/14 00:47:00;;;;;;;15.65;2.25;;;9.90;99.90;;;;;;5050756;28;20500;-42
2023/03/14 00:49:26;;;;;;;15.38;2.10;;;9.90;99.90;;;;;;5050351;28;20078;-41
2023/03/14 00:51:52;;;;;;;16.73;2.10;;;9.90;99.90;;;;;;5046444;28;20478;-43
2023/03/14 00:54:19;;;;;;;20.67;2.78;;;9.90;99.90;;;;;;5049591;28;20039;-42
2023/03/14 00:56:45;;;;;;;15.40;2.22;;;9.90;99.90;;;;;;5043485;28;20076;-44
2023/03/14 00:59:10;;;;;;;8.70;1.85;;;9.90;99.90;;;;;;5041662;28;20038;-45
2023/03/14 01:01:36;;;;;;;15.57;2.08;;;10.00;99.90;;;;;;5035632;28;20040;-41
2023/03/14 01:04:02;;;;;;;13.60;2.58;;;10.00;99.90;;;;;;5042570;28;20052;-41
2023/03/14 01:06:29;;;;;;;13.35;2.03;;;10.00;99.90;;;;;;5035588;28;20070;-39
2023/03/14 01:08:56;;;;;;;11.40;2.72;;;9.90;99.90;;;;;;5034721;28;20061;-42
2023/03/14 01:11:27;;;;;;;15.75;2.35;;;9.80;99.90;;;;;;5036033;28;20026;-51
2023/03/14 01:13:54;;;;;;;10.77;2.22;;;9.80;99.90;;;;;;5029990;28;20041;-40
2023/03/14 01:16:21;;;;;;;14.20;2.00;;;9.80;99.90;;;;;;5034347;28;20025;-50
2023/03/14 01:18:48;;;;;;;13.77;2.15;;;9.70;99.90;;;;;;5048329;28;20025;-43
2023/03/14 01:21:23;;;;;;;15.45;1.83;;;9.70;99.90;;;;;;5042991;28;20490;-44
2023/03/14 01:23:56;;;;;;;13.20;1.60;;;9.70;99.90;;;;;;5020270;28;20482;-41
2023/03/14 01:26:26;;;;;;;9.07;1.40;;;9.70;99.90;;;;;;5036876;28;20033;-41
2023/03/14 01:28:53;;;;;;;14.02;1.77;;;9.70;99.90;;;;;;5045906;28;20029;-44
2023/03/14 01:31:19;;;;;;;11.88;1.63;;;9.60;99.90;;;;;;5046084;28;20048;-43
2023/03/14 01:33:45;;;;;;;7.68;1.85;;;9.70;99.90;;;;;;5050510;28;20045;-48
2023/03/14 01:36:12;;;;;;;4.78;1.40;;;9.70;99.90;;;;;;5052575;28;20113;-42
2023/03/14 01:38:39;;;;;;;3.63;1.30;;;9.60;99.90;;;;;;5051230;28;20036;-51
2023/03/14 01:41:14;;;;;;;6.55;1.60;;;9.70;99.90;;;;;;5044582;28;20777;-45
2023/03/14 01:43:40;;;;;;;4.50;1.60;;;9.70;99.90;;;;;;5050513;28;20028;-40
2023/03/14 01:46:05;;;;;;;5.70;1.10;;;9.70;99.90;;;;;;5043876;28;20025;-51
2023/03/14 01:48:38;;;;;;;2.75;0.73;;;9.70;99.90;;;;;;5051880;28;20072;-41
2023/03/14 01:51:09;;;;;;;4.13;0.90;;;9.70;99.90;;;;;;5052048;28;20021;-44
2023/03/14 01:53:37;;;;;;;9.02;1.50;;;9.70;99.90;;;;;;5051088;28;20491;-42
2023/03/14 01:56:05;;;;;;;4.70;1.00;;;9.70;99.90;;;;;;5051764;28;20527;-43
2023/03/14 01:58:34;;;;;;;7.07;1.13;;;9.70;99.90;;;;;;5051005;28;20021;-53
2023/03/14 02:01:01;;;;;;;4.45;1.05;;;9.70;99.90;;;;;;5033913;28;20514;-43
2023/03/14 02:03:30;;;;;;;6.40;1.77;;;9.70;99.90;;;;;;5051871;28;20104;-41
2023/03/14 02:06:05;;;;;;;7.43;1.70;;;9.70;99.90;;;;;;5051778;28;20060;-43
2023/03/14 02:08:31;;;;;;;8.20;2.25;;;9.70;99.90;;;;;;5051551;28;20483;-47
2023/03/14 02:10:56;;;;;;;7.13;2.30;;;9.70;99.90;;;;;;5051344;28;20422;-41
2023/03/14 02:13:22;;;;;;;5.13;1.40;;;9.60;99.90;;;;;;5050970;28;20044;-47
2023/03/14 02:15:48;;;;;;;7.40;1.33;;;9.60;99.90;;;;;;5051492;28;20397;-41
2023/03/14 02:18:16;;;;;;;1.48;0.60;;;9.30;99.90;;;;;;5049939;28;20154;-44
2023/03/14 02:20:51;;;;;;;1.30;0.60;;;9.10;99.90;;;;;;5047547;28;20033;-53
2023/03/14 02:23:28;;;;;;;2.28;0.68;;;8.80;99.90;;;;;;5044831;28;20018;-50
2023/03/14 02:26:08;;;;;;;0.90;0.60;;;8.60;99.90;;;;;;5048068;28;20021;-56
2023/03/14 02:28:34;;;;;;;1.90;0.90;;;8.40;99.90;;;;;;5047280;28;20133;-46
2023/03/14 02:31:00;;;;;;;1.08;0.70;;;8.30;99.90;;;;;;5020406;28;20067;-45
2023/03/14 02:33:26;;;;;;;3.58;0.80;;;8.20;99.90;;;;;;5045267;28;20048;-47
2023/03/14 02:36:01;;;;;;;2.00;0.80;;;8.10;99.90;;;;;;5038216;28;20053;-45
2023/03/14 02:38:33;;;;;;;0.90;0.70;;;8.00;99.90;;;;;;5049402;28;20108;-41
2023/03/14 02:40:59;;;;;;;3.75;0.80;;;8.00;99.90;;;;;;5048984;28;20066;-47
2023/03/14 02:43:25;;;;;;;2.72;0.80;;;7.90;99.90;;;;;;5050694;28;20029;-44
2023/03/14 02:45:51;;;;;;;1.15;0.80;;;7.90;99.90;;;;;;5050447;28;20149;-40
2023/03/14 02:48:46;;;;;;;2.05;1.10;;;7.90;99.90;;;;;;5042701;28;20024;-41
2023/03/14 02:51:13;;;;;;;2.58;1.00;;;7.90;99.90;;;;;;5019876;28;20112;-41
2023/03/14 02:53:41;;;;;;;4.30;1.10;;;7.80;99.90;;;;;;5049556;28;20036;-41
2023/03/14 02:56:07;;;;;;;2.53;1.00;;;7.80;99.90;;;;;;5045761;28;20072;-40
2023/03/14 02:58:34;;;;;;;2.78;1.02;;;7.80;99.90;;;;;;5031660;28;20039;-43
2023/03/14 03:01:00;;;;;;;2.75;1.10;;;7.70;99.90;;;;;;5045115;28;20028;-46
2023/03/14 03:03:26;;;;;;;1.27;1.00;;;7.80;99.90;;;;;;5045391;28;20056;-41
2023/03/14 03:05:53;;;;;;;3.63;1.45;;;7.70;99.90;;;;;;5050353;28;20416;-45
2023/03/14 03:08:21;;;;;;;3.17;1.40;;;7.70;99.90;;;;;;5049797;28;20084;-41
2023/03/14 03:10:46;;;;;;;3.20;1.10;;;7.70;99.90;;;;;;5038932;28;20075;-44
2023/03/14 03:13:12;;;;;;;3.88;1.00;;;7.70;99.90;;;;;;5048734;28;20037;-45
2023/03/14 03:15:38;;;;;;;2.33;0.77;;;7.60;99.90;;;;;;5047880;28;20094;-40
2023/03/14 03:18:04;;;;;;;2.55;0.88;;;7.70;99.90;;;;;;5039178;28;20029;-50
2023/03/14 03:20:29;;;;;;;2.85;1.08;;;7.60;99.90;;;;;;5050223;28;20048;-43
2023/03/14 03:22:55;;;;;;;2.13;0.70;;;7.50;99.90;;;;;;5049980;28;20029;-47
2023/03/14 03:25:21;;;;;;;4.32;0.90;;;7.40;99.90;;;;;;5048949;28;20070;-42
2023/03/14 03:27:46;;;;;;;1.90;0.80;;;7.30;99.90;;;;;;5050468;28;20053;-48
2023/03/14 03:30:12;;;;;;;3.20;0.93;;;7.20;99.90;;;;;;5049996;28;20031;-41
2023/03/14 03:32:38;;;;;;;2.95;0.82;;;7.10;99.90;;;;;;5046860;28;20138;-44
2023/03/14 03:35:04;;;;;;;1.30;0.60;;;7.00;99.90;;;;;;5028524;28;20033;-44
2023/03/14 03:37:31;;;;;;;1.80;0.68;;;7.00;99.90;;;;;;5050240;28;20100;-50
2023/03/14 03:39:57;;;;;;;1.65;0.90;;;6.90;99.90;;;;;;5050124;28;20052;-41
2023/03/14 03:42:22;;;;;;;2.42;0.80;;;6.90;99.90;;;;;;5050322;28;20059;-46
2023/03/14 03:44:49;;;;;;;2.58;0.70;;;6.80;99.90;;;;;;5050247;28;20025;-43
2023/03/14 03:47:15;;;;;;;3.13;0.85;;;6.70;99.90;;;;;;5050210;28;20025;-41
2023/03/14 03:49:41;;;;;;;3.95;0.70;;;6.60;99.90;;;;;;5050264;28;20432;-43
2023/03/14 03:52:06;;;;;;;2.55;0.93;;;6.60;99.90;;;;;;5050183;28;20091;-42
2023/03/14 03:54:32;;;;;;;2.10;0.80;;;6.60;99.90;;;;;;5037849;28;20068;-48
2023/03/14 03:56:57;;;;;;;1.67;0.75;;;6.60;99.90;;;;;;5050168;28;20021;-53
2023/03/14 03:59:23;;;;;;;3.25;0.90;;;6.50;99.90;;;;;;5048407;28;20021;-48
2023/03/14 04:01:49;;;;;;;2.17;0.73;;;6.50;99.90;;;;;;5050122;28;20040;-40
2023/03/14 04:04:14;;;;;;;1.63;0.70;;;6.40;99.90;;;;;;5047876;28;20362;-41
2023/03/14 04:06:41;;;;;;;1.85;0.90;;;6.40;99.90;;;;;;5036113;28;20113;-40
2023/03/14 04:09:08;;;;;;;3.28;0.90;;;6.30;99.90;;;;;;5037210;28;20102;-41
2023/03/14 04:11:33;;;;;;;1.40;0.63;;;6.40;99.90;;;;;;5048618;28;20022;-42
2023/03/14 04:13:59;;;;;;;2.72;0.80;;;6.30;99.90;;;;;;5035468;28;20072;-42
2023/03/14 04:16:25;;;;;;;2.65;0.80;;;6.30;99.90;;;;;;5049474;28;20373;-45
2023/03/14 04:18:51;;;;;;;3.97;0.90;;;6.20;99.90;;;;;;5049771;28;20409;-44
2023/03/14 04:21:17;;;;;;;1.67;0.70;;;6.20;99.90;;;;;;5051171;28;20025;-47
2023/03/14 04:23:43;;;;;;;2.58;1.02;;;6.10;99.90;;;;;;5050476;28;20274;-43
2023/03/14 04:26:09;;;;;;;3.15;1.05;;;6.10;99.90;;;;;;5053186;28;20531;-41
2023/03/14 04:28:36;;;;;;;2.40;0.80;;;6.00;99.90;;;;;;5051798;28;20044;-48
2023/03/14 04:31:19;;;;;;;3.90;0.80;;;6.00;99.90;;;;;;5053412;28;20025;-41
2023/03/14 04:33:46;;;;;;;3.35;0.90;;;5.90;99.90;;;;;;5041703;28;20041;-46
2023/03/14 04:36:12;;;;;;;2.00;0.80;;;6.00;99.90;;;;;;5024960;28;20537;-41
2023/03/14 04:38:37;;;;;;;4.07;0.82;;;5.90;99.90;;;;;;5047480;28;20033;-43
2023/03/14 04:41:03;;;;;;;5.65;1.05;;;5.90;99.90;;;;;;5052006;28;20028;-41
2023/03/14 04:43:29;;;;;;;1.70;0.57;;;5.80;99.90;;;;;;5049376;28;20028;-48
2023/03/14 04:45:56;;;;;;;3.55;0.93;;;5.80;99.90;;;;;;5053082;28;20032;-41
2023/03/14 04:48:22;;;;;;;3.08;0.80;;;5.70;99.90;;;;;;5051446;28;20086;-40
2023/03/14 04:50:48;;;;;;;8.38;1.15;;;5.70;99.90;;;;;;5041686;28;20074;-40
2023/03/14 04:53:16;;;;;;;4.72;0.80;;;5.70;99.90;;;;;;5051156;28;20040;-41
2023/03/14 04:55:41;;;;;;;7.85;1.05;;;5.60;99.90;;;;;;5052519;28;20024;-41
2023/03/14 04:58:07;;;;;;;5.75;0.95;;;5.50;99.90;;;;;;5051502;28;20444;-41
2023/03/14 05:00:33;;;;;;;5.57;1.13;;;5.50;99.90;;;;;;5049251;28;20504;-40
2023/03/14 05:02:59;;;;;;;4.18;1.02;;;5.50;99.90;;;;;;5051063;28;20056;-41
2023/03/14 05:05:25;;;;;;;7.28;1.23;;;5.40;99.90;;;;;;5051924;28;20033;-41
2023/03/14 05:07:51;;;;;;;3.25;1.10;;;5.40;99.90;;;;;;5052384;28;20076;-41
2023/03/14 05:10:16;;;;;;;4.40;0.98;;;5.30;99.90;;;;;;5048874;28;20439;-41
2023/03/14 05:12:42;;;;;;;7.75;1.25;;;5.30;99.90;;;;;;5052011;28;20032;-40
2023/03/14 05:15:08;;;;;;;8.18;1.10;;;5.20;99.90;;;;;;5050882;28;20416;-40
2023/03/14 05:17:34;;;;;;;7.10;1.10;;;5.20;99.90;;;;;;5052340;28;20030;-41
2023/03/14 05:20:00;;;;;;;6.07;1.40;;;5.20;99.90;;;;;;5041873;28;20396;-47
2023/03/14 05:22:26;;;;;;;6.18;0.82;;;5.20;99.90;;;;;;5047257;28;20028;-44
2023/03/14 05:24:56;;;;;;;5.88;0.93;;;5.20;99.90;;;;;;5051850;28;20438;-43
2023/03/14 05:27:22;;;;;;;5.85;0.90;;;5.20;99.90;;;;;;5044494;28;20475;-44
2023/03/14 05:29:47;;;;;;;7.55;1.52;;;5.10;99.90;;;;;;5048146;28;20155;-44
2023/03/14 05:32:13;;;;;;;2.67;0.93;;;5.10;99.90;;;;;;5032581;28;20033;-48
2023/03/14 05:34:39;;;;;;;5.55;0.90;;;5.10;99.90;;;;;;5024794;28;20120;-48
2023/03/14 05:37:04;;;;;;;5.65;1.20;;;5.10;99.90;;;;;;5046580;28;20051;-43
2023/03/14 05:39:30;;;;;;;5.95;1.00;;;5.00;99.90;;;;;;5039811;28;20402;-44
2023/03/14 05:41:55;;;;;;;8.25;1.15;;;5.00;99.90;;;;;;5047311;28;20039;-41
2023/03/14 05:44:21;;;;;;;5.03;1.20;;;5.00;99.90;;;;;;5050437;28;20087;-42
2023/03/14 05:46:47;;;;;;;6.82;1.20;;;4.90;99.90;;;;;;5050017;28;20099;-43
2023/03/14 05:49:12;;;;;;;6.97;1.20;;;4.80;99.90;;;;;;5044088;28;20029;-51
2023/03/14 05:51:38;;;;;;;5.85;1.05;;;4.80;99.90;;;;;;5051407;28;20029;-49
2023/03/14 05:54:03;;;;;;;3.70;1.00;;;4.70;99.90;;;;;;5051217;28;20044;-58
2023/03/14 05:56:29;;;;;;;8.13;1.35;;;4.70;99.90;;;;;;5033890;28;20032;-43
2023/03/14 05:58:55;;;;;;;5.38;1.02;;;4.80;99.90;;;;;;5048044;28;20443;-50
2023/03/14 06:01:20;;;;;;;7.68;1.00;;;4.70;99.90;;;;;;5049893;28;20047;-52
2023/03/14 06:03:46;;;;;;;6.00;1.17;;;4.70;99.90;;;;;;5050139;28;20077;-54
2023/03/14 06:06:11;;;;;;;8.13;1.30;;;4.60;99.90;;;;;;5050941;28;20037;-49
2023/03/14 06:08:37;;;;;;;9.90;1.15;;;4.60;99.90;;;;;;5048182;28;20362;-46
2023/03/14 06:11:03;;;;;;;6.63;1.15;;;4.60;99.90;;;;;;5051143;28;20021;-48
2023/03/14 06:13:29;;;;;;;5.35;1.00;;;4.50;99.90;;;;;;5025503;28;20053;-43
2023/03/14 06:15:55;;;;;;;6.97;1.30;;;4.50;99.90;;;;;;5017909;28;20099;-51
2023/03/14 06:18:20;;;;;;;7.18;1.63;;;4.40;99.90;;;;;;5017019;28;20462;-41
2023/03/14 06:20:46;;;;;;;5.57;1.10;;;4.50;99.90;;;;;;5018226;28;20548;-42
2023/03/14 06:23:12;;;;;;;9.80;1.35;;;4.50;99.90;;;;;;5026083;28;20028;-44
2023/03/14 06:25:37;;;;;;;6.70;1.30;;;4.40;99.90;;;;;;5015928;28;20026;-42
2023/03/14 06:28:03;;;;;;;6.57;1.10;;;4.50;99.90;;;;;;5022909;28;20513;-49
2023/03/14 06:30:29;;;;;;;6.93;1.35;;;4.40;99.90;;;;;;5006291;28;20030;-44
2023/03/14 06:32:55;;;;;;;4.80;1.02;;;4.40;99.90;;;;;;5010839;28;20430;-53
2023/03/14 06:35:21;;;;;;;6.85;1.50;;;4.40;99.90;;;;;;5022777;28;20049;-42
2023/03/14 06:37:47;;;;;;;7.22;1.50;;;4.30;99.90;;;;;;5029650;28;20316;-50
2023/03/14 06:40:16;;;;;;;5.72;1.25;;;4.40;99.90;;;;;;5016808;28;20507;-48
2023/03/14 06:42:43;;;;;;;6.22;1.20;;;4.40;99.90;;;;;;5026915;28;20429;-55
2023/03/14 06:45:09;;;;;;;9.65;1.42;;;4.50;99.90;;;;;;5005186;28;20029;-46
2023/03/14 06:47:35;;;;;;;7.97;1.50;;;4.50;99.90;;;;;;5010048;28;20025;-51
2023/03/14 06:50:00;;;;;;;6.38;1.60;;;4.50;99.90;;;;;;5012180;28;20112;-44
2023/03/14 06:52:26;;;;;;;9.25;1.50;;;4.60;99.90;;;;;;5024612;28;20452;-44
2023/03/14 06:54:52;;;;;;;12.95;1.65;;;4.70;99.90;;;;;;5005280;28;20037;-50
2023/03/14 06:57:17;;;;;;;7.18;1.33;;;4.60;99.90;;;;;;5025729;28;20037;-47
2023/03/14 06:59:43;;;;;;;14.15;1.55;;;4.70;99.90;;;;;;5014752;28;20030;-43
2023/03/14 07:02:11;;;;;;;3.75;1.10;;;4.70;99.90;;;;;;5015071;28;20026;-44
2023/03/14 07:04:37;;;;;;;4.82;1.05;;;4.80;99.90;;;;;;5026994;28;20018;-44
2023/03/14 07:07:03;;;;;;;6.40;1.00;;;4.90;99.90;;;;;;5023113;28;20436;-43
2023/03/14 07:09:28;;;;;;;8.70;1.40;;;4.90;99.90;;;;;;5016593;28;20053;-48
2023/03/14 07:11:54;;;;;;;5.80;1.05;;;4.90;99.90;;;;;;5015214;28;20543;-43
2023/03/14 07:14:19;;;;;;;8.23;1.27;;;4.90;99.90;;;;;;5034503;28;20076;-43
2023/03/14 07:16:45;;;;;;;7.70;1.15;;;5.00;99.90;;;;;;5050064;28;20025;-42
2023/03/14 07:19:11;;;;;;;9.70;1.42;;;5.00;99.90;;;;;;5030666;28;20033;-44
2023/03/14 07:21:36;;;;;;;6.18;1.42;;;5.10;99.90;;;;;;5050026;28;20040;-42
2023/03/14 07:24:02;;;;;;;9.52;1.63;;;5.20;99.90;;;;;;5046275;28;20086;-49
2023/03/14 07:26:28;;;;;;;12.88;1.42;;;5.20;99.90;;;;;;5047228;28;20172;-47
2023/03/14 07:28:57;;;;;;;6.53;1.30;;;5.30;99.90;;;;;;5042650;28;20033;-41
2023/03/14 07:31:23;;;;;;;10.10;1.67;;;5.40;99.90;;;;;;5047203;28;20029;-41
2023/03/14 07:33:49;;;;;;;8.18;1.02;;;5.40;99.90;;;;;;5042844;28;20382;-41
2023/03/14 07:36:15;;;;;;;7.95;1.05;;;5.50;99.90;;;;;;5026997;28;20688;-41
2023/03/14 07:38:41;;;;;;;6.15;1.13;;;5.60;99.90;;;;;;5032486;28;20533;-44
2023/03/14 07:41:07;;;;;;;8.38;1.90;;;5.80;99.90;;;;;;5045351;28;20033;-41
2023/03/14 07:43:33;;;;;;;6.22;1.80;;;6.00;99.90;;;;;;5047452;28;20029;-47
2023/03/14 07:45:59;;;;;;;5.80;1.23;;;6.40;99.90;;;;;;5048666;28;20029;-42
2023/03/14 07:48:26;;;;;;;8.93;1.23;;;6.70;99.90;;;;;;5043358;28;20028;-52
2023/03/14 07:50:53;;;;;;;9.25;1.50;;;6.90;99.90;;;;;;5020463;28;20481;-50
2023/03/14 07:53:19;;;;;;;11.93;1.85;;;7.00;99.90;;;;;;5041589;28;20033;-43
2023/03/14 07:55:46;;;;;;;9.90;1.58;;;7.00;99.90;;;;;;5050296;28;20029;-42
2023/03/14 07:58:12;;;;;;;6.97;1.30;;;7.20;99.90;;;;;;5043600;28;20021;-52
2023/03/14 08:00:38;;;;;;;9.18;1.20;;;7.20;99.90;;;;;;5044501;28;20398;-44
2023/03/14 08:03:04;;;;;;;7.07;1.83;;;7.30;99.90;;;;;;5039924;28;20112;-50
2023/03/14 08:05:30;;;;;;;8.75;1.52;;;7.40;99.90;;;;;;5049112;28;20037;-40
2023/03/14 08:07:55;;;;;;;9.27;1.65;;;7.50;99.90;;;;;;5046250;28;20025;-41
2023/03/14 08:10:24;;;;;;;6.13;1.50;;;7.60;99.90;;;;;;5026092;28;20033;-42
2023/03/14 08:12:54;;;;;;;7.93;1.80;;;7.80;99.90;;;;;;5051491;28;20029;-43
2023/03/14 08:15:19;;;;;;;11.15;1.80;;;7.80;99.90;;;;;;5050098;28;20098;-47
2023/03/14 08:17:50;;;;;;;6.55;1.58;;;7.80;99.90;;;;;;5040583;28;20025;-42
2023/03/14 08:20:19;;;;;;;5.65;1.05;;;7.70;99.90;;;;;;5040151;28;20084;-52
2023/03/14 08:22:45;;;;;;;8.93;1.30;;;7.60;99.90;;;;;;5048511;28;20095;-49
2023/03/14 08:25:10;;;;;;;9.30;1.38;;;7.50;99.90;;;;;;5041343;28;20426;-50
2023/03/14 08:27:40;;;;;;;8.90;1.20;;;7.50;99.90;;;;;;5038576;28;20114;-43
2023/03/14 08:30:09;;;;;;;8.73;1.10;;;7.50;99.90;;;;;;5024013;28;20025;-41
2023/03/14 08:32:34;;;;;;;4.90;1.20;;;7.40;99.90;;;;;;5040721;28;20502;-44
2023/03/14 08:35:00;;;;;;;9.07;1.98;;;7.40;99.90;;;;;;5040589;28;20094;-44
2023/03/14 08:37:26;;;;;;;6.35;1.23;;;7.30;99.90;;;;;;5013195;28;20057;-42
2023/03/14 08:39:53;;;;;;;5.35;1.20;;;7.30;99.90;;;;;;5038317;28;20060;-41
2023/03/14 08:42:18;;;;;;;5.60;1.45;;;7.30;99.90;;;;;;5050705;28;20037;-49
2023/03/14 08:44:44;;;;;;;4.55;1.15;;;7.30;99.90;;;;;;5050305;28;20021;-47
2023/03/14 08:47:10;;;;;;;4.78;0.90;;;7.40;99.90;;;;;;5049521;28;20032;-45
2023/03/14 08:49:35;;;;;;;6.38;1.20;;;7.50;99.90;;;;;;5046205;28;20364;-45
2023/03/14 08:52:03;;;;;;;7.13;1.30;;;7.60;99.90;;;;;;5047826;28;20106;-42
2023/03/14 08:54:29;;;;;;;7.47;1.27;;;7.80;99.90;;;;;;5052911;28;20033;-49
2023/03/14 08:56:55;;;;;;;5.72;1.20;;;8.00;99.90;;;;;;5051533;28;20027;-42
2023/03/14 08:59:21;;;;;;;5.75;1.00;;;8.40;99.90;;;;;;5028825;28;20116;-44
2023/03/14 09:01:47;;;;;;;12.52;1.27;;;9.00;99.90;;;;;;5044257;28;20021;-45
2023/03/14 09:04:13;;;;;;;5.65;1.08;;;8.90;99.90;;;;;;5044362;28;20048;-42
2023/03/14 09:06:39;;;;;;;11.48;1.30;;;8.50;99.90;;;;;;5035386;28;20112;-43
2023/03/14 09:09:05;;;;;;;11.38;1.50;;;8.20;99.90;;;;;;5035725;28;20477;-46
2023/03/14 09:11:30;;;;;;;5.90;1.20;;;8.10;99.90;;;;;;5033916;28;20032;-45
2023/03/14 09:13:56;;;;;;;7.72;1.50;;;8.10;99.90;;;;;;5036611;28;20057;-47
2023/03/14 09:16:22;;;;;;;3.97;1.00;;;8.20;99.90;;;;;;5034347;28;20025;-46
2023/03/14 09:18:48;;;;;;;9.45;1.52;;;8.50;99.90;;;;;;5019015;28;20045;-42
2023/03/14 09:21:15;;;;;;;3.50;0.70;;;8.90;99.90;;;;;;5033361;28;20017;-43
2023/03/14 09:23:41;;;;;;;5.40;1.45;;;9.30;99.90;;;;;;5033220;28;20032;-49
2023/03/14 09:26:07;;;;;;;6.40;1.15;;;9.70;99.90;;;;;;5035660;28;20021;-45
2023/03/14 09:28:32;;;;;;;5.30;0.98;;;10.40;99.90;;;;;;5033971;28;20029;-46
2023/03/14 09:31:04;;;;;;;4.32;1.05;;;10.60;99.90;;;;;;5036830;28;20036;-46
2023/03/14 09:33:30;;;;;;;5.88;0.80;;;11.00;99.90;;;;;;5044585;28;20486;-44
2023/03/14 09:35:58;;;;;;;5.65;1.02;;;10.60;98.80;;;;;;5040399;28;20040;-48
2023/03/14 09:38:24;;;;;;;5.17;1.30;;;10.30;98.40;;;;;;5036098;28;20014;-49
2023/03/14 09:40:50;;;;;;;6.93;1.00;;;10.40;99.30;;;;;;5042253;28;20444;-45
2023/03/14 09:43:16;;;;;;;7.85;1.73;;;10.50;98.10;;;;;;5037504;28;20116;-50
2023/03/14 09:45:45;;;;;;;3.80;0.88;;;10.20;99.00;;;;;;5038830;28;20037;-43
2023/03/14 09:48:22;;;;;;;7.22;1.23;;;10.00;98.90;;;;;;5039816;28;20445;-47
2023/03/14 09:50:54;;;;;;;5.18;1.23;;;9.90;99.90;;;;;;5048230;28;20025;-49
2023/03/14 09:53:42;;;;;;;3.90;0.60;;;10.00;99.90;;;;;;5049303;28;20045;-48
2023/03/14 09:56:32;;;;;;;2.67;0.70;;;10.10;99.90;;;;;;5046321;28;20025;-42
2023/03/14 09:59:04;;;;;;;1.45;0.63;;;10.20;99.80;;;;;;5036934;28;20029;-40
2023/03/14 10:01:31;;;;;;;3.60;0.60;;;10.70;99.90;;;;;;5043456;28;20029;-48
2023/03/14 10:04:12;;;;;;;5.82;2.70;;;11.40;98.70;;;;;;5050364;28;20037;-49
2023/03/14 10:06:38;;;;;;;6.72;2.67;;;11.90;96.40;;;;;;5041730;28;20043;-46
2023/03/14 10:09:05;;;;;;;5.25;2.10;;;12.10;94.70;;;;;;5042612;28;20040;-49
2023/03/14 10:11:31;;;;;;;3.05;0.70;;;13.30;95.80;;;;;;5048421;28;20516;-43
2023/03/14 10:14:12;;;;;;;3.05;0.75;;;15.00;90.40;;;;;;5046095;28;20045;-42
2023/03/14 10:16:44;;;;;;;1.65;0.60;;;16.30;81.10;;;;;;5041922;28;20083;-45
2023/03/14 10:19:13;;;;;;;3.65;1.15;;;16.40;79.80;;;;;;5044755;28;20021;-48
2023/03/14 10:21:52;;;;;;;3.85;0.70;;;15.80;80.10;;;;;;5045038;28;20104;-52
2023/03/14 10:24:22;;;;;;;4.35;0.70;;;14.90;77.20;;;;;;5045103;28;20057;-43
2023/03/14 10:27:01;;;;;;;2.00;0.60;;;14.10;80.00;;;;;;5031811;28;20399;-46
2023/03/14 10:29:26;;;;;;;4.20;0.68;;;12.70;83.30;;;;;;5043462;28;20067;-43
2023/03/14 10:31:55;;;;;;;3.83;0.70;;;11.90;85.90;;;;;;5038247;28;20455;-44
2023/03/14 10:34:32;;;;;;;0.82;0.40;;;11.10;90.20;;;;;;5040910;28;20036;-43
2023/03/14 10:37:06;;;;;;;1.15;0.60;;;10.60;91.40;;;;;;5041255;28;20031;-53
2023/03/14 10:39:58;;;;;;;0.80;0.60;;;10.00;91.90;;;;;;5039880;28;20021;-44
2023/03/14 10:42:31;;;;;;;3.88;0.68;;;9.70;92.90;;;;;;5049608;28;20082;-43
2023/03/14 10:45:32;;;;;;;1.95;0.60;;;9.80;93.60;;;;;;5039436;28;20029;-44
2023/03/14 10:48:20;;;;;;;2.25;0.60;;;10.00;93.40;;;;;;5033821;28;20095;-45
2023/03/14 10:51:03;;;;;;;1.48;0.70;;;10.40;94.60;;;;;;5029664;28;20043;-42
2023/03/14 10:53:53;;;;;;;3.00;0.93;;;10.20;92.80;;;;;;5048958;28;20043;-50
2023/03/14 10:56:21;;;;;;;2.03;0.85;;;10.30;94.70;;;;;;5005468;28;20072;-44
2023/03/14 10:58:52;;;;;;;2.33;0.70;;;9.80;95.20;;;;;;5047155;28;20426;-42
2023/03/14 11:01:55;;;;;;;2.92;0.90;;;9.70;95.50;;;;;;5047883;28;20024;-42
2023/03/14 11:04:43;;;;;;;2.08;0.90;;;9.70;96.30;;;;;;5045927;28;20021;-48
2023/03/14 11:07:27;;;;;;;2.90;1.05;;;10.20;98.30;;;;;;5041438;28;20025;-42
2023/03/14 11:10:10;;;;;;;1.67;0.70;;;11.10;96.50;;;;;;5034394;28;20084;-42
2023/03/14 11:13:02;;;;;;;2.53;0.75;;;12.70;95.90;;;;;;5042850;28;20031;-45
2023/03/14 11:15:46;;;;;;;4.20;0.80;;;13.30;90.70;;;;;;5035641;28;20052;-42
2023/03/14 11:19:03;;;;;;;1.75;0.70;;;13.40;89.50;;;;;;5042725;28;20104;-42
2023/03/14 11:21:41;;;;;;;1.35;0.65;;;13.10;90.40;;;;;;4987919;28;20041;-49
2023/03/14 11:24:16;;;;;;;3.20;1.00;;;13.90;90.80;;;;;;5036228;28;20083;-45
2023/03/14 11:26:58;;;;;;;1.80;0.73;;;14.40;87.50;;;;;;5036313;28;20041;-42
2023/03/14 11:29:36;;;;;;;2.78;0.70;;;14.40;86.30;;;;;;5031219;28;20092;-42
2023/03/14 11:32:11;;;;;;;3.13;0.83;;;14.50;84.90;;;;;;5025538;28;20492;-42
2023/03/14 11:34:54;;;;;;;3.05;1.08;;;15.30;78.70;;;;;;5039553;28;20301;-43
2023/03/14 11:37:44;;;;;;;3.65;0.88;;;15.10;76.30;;;;;;5038346;28;20143;-42
2023/03/14 11:40:16;;;;;;;4.05;0.90;;;16.20;74.80;;;;;;5043168;28;20030;-43
2023/03/14 11:42:45;;;;;;;3.17;0.90;;;15.80;71.60;;;;;;5041886;28;20017;-42
2023/03/14 11:45:18;;;;;;;7.85;1.13;;;16.20;72.90;;;;;;5037299;28;20021;-42
2023/03/14 11:47:46;;;;;;;3.90;1.00;;;17.40;69.80;;;;;;5048475;28;20052;-46
2023/03/14 11:50:25;;;;;;;4.50;1.20;;;18.40;69.20;;;;;;5045143;28;20060;-43
2023/03/14 11:53:04;;;;;;;2.72;1.00;;;19.20;64.40;;;;;;5048383;28;20042;-46
2023/03/14 11:55:34;;;;;;;5.40;1.33;;;20.00;60.20;;;;;;5040361;28;20429;-45
2023/03/14 11:58:17;;;;;;;3.13;0.90;;;21.50;60.50;;;;;;5028085;28;20033;-47
2023/03/14 12:00:44;;;;;;;5.47;1.35;;;21.20;56.00;;;;;;5042861;28;20025;-45
2023/03/14 12:03:31;;;;;;;5.85;1.00;;;21.00;54.50;;;;;;5047671;28;20029;-43
2023/03/14 12:06:14;;;;;;;4.63;1.13;;;20.20;53.60;;;;;;5037693;28;20364;-42
2023/03/14 12:08:44;;;;;;;3.08;1.00;;;20.20;55.70;;;;;;5036587;28;20025;-43
2023/03/14 12:11:19;;;;;;;3.22;0.90;;;20.30;55.70;;;;;;5045467;28;20104;-47
2023/03/14 12:13:51;;;;;;;4.38;1.02;;;19.40;56.60;;;;;;5007833;28;1115708;-49
2023/03/14 12:16:22;;;;;;;4.18;1.00;;;18.90;58.10;;;;;;5042838;28;20348;-44
2023/03/14 12:18:48;;;;;;;2.83;0.80;;;18.80;57.00;;;;;;5039618;28;20723;-46
2023/03/14 12:21:14;;;;;;;4.85;1.17;;;17.50;56.40;;;;;;5050314;28;20393;-43
2023/03/14 12:23:52;;;;;;;2.42;0.80;;;16.90;58.10;;;;;;5051833;28;20028;-44
2023/03/14 12:26:22;;;;;;;3.38;1.00;;;16.70;64.50;;;;;;5043837;28;20108;-45
2023/03/14 12:28:56;;;;;;;2.65;0.80;;;17.60;60.70;;;;;;5044972;28;20497;-44
2023/03/14 12:31:31;;;;;;;2.83;0.88;;;18.10;58.40;;;;;;5048186;28;20033;-48
2023/03/14 12:34:10;;;;;;;4.93;0.93;;;18.90;56.30;;;;;;5052811;28;20195;-51
2023/03/14 12:36:42;;;;;;;;;;;20.90;55.10;;;;;;5033676;28;20026;-48
2023/03/14 12:39:46;;;;;;;3.30;0.80;;;21.30;50.20;;;;;;5052828;28;20385;-47
2023/03/14 12:42:20;;;;;;;4.28;1.00;;;20.70;50.30;;;;;;5010853;28;20025;-46
2023/03/14 12:44:48;;;;;;;4.05;1.00;;;19.00;52.60;;;;;;5035837;28;20131;-47
2023/03/14 12:47:19;;;;;;;2.03;0.95;;;18.30;56.50;;;;;;5051247;28;20021;-49
2023/03/14 12:49:48;;;;;;;3.25;0.90;;;19.10;56.40;;;;;;5027331;28;20127;-45
2023/03/14 12:52:20;;;;;;;2.92;1.30;;;20.20;53.80;;;;;;5047491;28;20021;-43
2023/03/14 12:55:10;;;;;;;1.65;0.70;;;21.50;50.40;;;;;;5048785;28;20041;-46
2023/03/14 12:57:45;;;;;;;;;;;20.90;50.80;;;;;;5043308;28;20029;-45
2023/03/14 13:00:29;;;;;;;2.88;0.82;;;21.90;48.60;;;;;;5048212;28;20427;-47
2023/03/14 13:03:12;;;;;;;7.55;0.90;;;21.50;47.80;;;;;;5042084;28;20029;-43